Time;durP1;ratioP1;P1;durP2;ratioP2;P2;SDS_P1;SDS_P2;PMS_P1;PMS_P2;Temp;Humidity;BMP_temperature;BMP_pressure;BME280_temperature;BME280_humidity;BME280_pressure;Samples;Min_cycle;Max_cycle;Signal;HPM_P1;HPM_P2
2022/03/31 00:00:30;;;;;;;;;;;;;;;23.05;67.45;95918.28;575566;246;65623;-73
2022/03/31 00:02:58;;;;;;;;;;;;;;;23.05;67.31;95918.28;575032;245;68656;-73
2022/03/31 00:05:26;;;;;;;;;;;;;;;23.06;67.54;95913.74;575539;246;68725;-72
2022/03/31 00:07:55;;;;;;;;;;;;;;;23.04;66.91;95903.32;575624;246;63163;-72
2022/03/31 00:10:23;;;;;;;;;;;;;;;23.05;66.83;95904.89;575512;246;68527;-73
2022/03/31 00:12:51;;;;;;;;;;;;;;;23.04;67.22;95887.24;575545;246;66514;-73
2022/03/31 00:15:19;;;;;;;;;;;;;;;23.03;66.58;95902.53;575521;246;65242;-73
2022/03/31 00:17:47;;;;;;;;;;;;;;;23.04;67.46;95903.32;575514;246;68858;-73
2022/03/31 00:20:32;;;;;;;;;;;;;;;23.03;67.09;95894.50;580340;242;68872;-73
2022/03/31 00:23:18;;;;;;;;;;;;;;;23.04;67.49;95895.28;586195;242;65440;-72
2022/03/31 00:26:03;;;;;;;;;;;;;;;23.03;66.90;95891.03;586210;242;68734;-73
2022/03/31 00:28:55;;;;;;;;;;;;;;;23.02;67.42;95876.04;586167;242;66531;-72
2022/03/31 00:31:41;;;;;;;;;;;;;;;23.02;67.17;95870.68;586132;242;65344;-72
2022/03/31 00:34:08;;;;;;;;;;;;;;;23.02;67.35;95881.40;586133;242;68887;-72
2022/03/31 00:36:36;;;;;;;;;;;;;;;23.02;67.58;95881.40;586137;242;68688;-72
2022/03/31 00:41:49;;;;;;;;;;;;;;;22.99;67.82;95866.73;586133;242;69690;-72
2022/03/31 00:44:16;;;;;;;;;;;;;;;22.99;66.89;95873.98;586188;242;68878;-71
2022/03/31 00:46:48;;;;;;;;;;;;;;;22.99;67.46;95874.77;586126;242;65438;-71
2022/03/31 00:49:20;;;;;;;;;;;;;;;22.99;66.17;95876.66;586139;242;68882;-72
2022/03/31 00:51:49;;;;;;;;;;;;;;;23.00;67.32;95878.27;586134;242;66502;-73
2022/03/31 00:54:18;;;;;;;;;;;;;;;23.00;67.43;95868.33;586163;242;65150;-73
2022/03/31 00:56:47;;;;;;;;;;;;;;;22.98;66.83;95869.73;586156;242;66693;-73
2022/03/31 00:59:15;;;;;;;;;;;;;;;22.99;67.64;95864.05;586175;242;69244;-73
2022/03/31 01:01:43;;;;;;;;;;;;;;;22.99;66.82;95855.23;586157;242;65193;-73
2022/03/31 01:04:11;;;;;;;;;;;;;;;22.99;66.97;95857.91;586104;242;67376;-73
2022/03/31 01:06:39;;;;;;;;;;;;;;;22.99;67.53;95856.02;586144;242;66740;-73
2022/03/31 01:09:06;;;;;;;;;;;;;;;22.99;67.52;95849.88;586140;242;63186;-73
2022/03/31 01:11:34;;;;;;;;;;;;;;;22.97;66.80;95860.92;586179;242;66460;-72
2022/03/31 01:14:01;;;;;;;;;;;;;;;22.98;67.32;95834.91;586127;242;65409;-72
2022/03/31 01:16:31;;;;;;;;;;;;;;;22.97;67.74;95847.52;586153;242;65241;-73
2022/03/31 01:19:00;;;;;;;;;;;;;;;22.97;68.08;95827.95;586133;242;68643;-73
2022/03/31 01:21:28;;;;;;;;;;;;;;;22.96;66.88;95842.46;575867;242;68706;-73
2022/03/31 01:23:56;;;;;;;;;;;;;;;22.97;67.29;95835.98;575601;246;65436;-73
2022/03/31 01:26:24;;;;;;;;;;;;;;;22.97;68.02;95842.16;575508;246;66227;-72
2022/03/31 01:28:51;;;;;;;;;;;;;;;22.96;67.22;95858.53;575533;246;68585;-73
2022/03/31 01:31:20;;;;;;;;;;;;;;;22.96;67.06;95850.50;575517;246;65434;-72
2022/03/31 01:33:47;;;;;;;;;;;;;;;22.95;67.28;95846.22;575540;246;66835;-73
2022/03/31 01:36:15;;;;;;;;;;;;;;;22.94;66.96;95842.73;575567;246;66551;-72
2022/03/31 01:38:42;;;;;;;;;;;;;;;22.96;67.28;95850.50;575579;246;63050;-73
2022/03/31 01:41:10;;;;;;;;;;;;;;;22.95;67.26;95849.69;575536;246;68485;-73
2022/03/31 01:43:37;;;;;;;;;;;;;;;22.94;67.13;95850.77;575557;246;68464;-73
2022/03/31 01:46:07;;;;;;;;;;;;;;;22.95;67.74;95846.22;575521;246;65291;-73
2022/03/31 01:48:34;;;;;;;;;;;;;;;22.94;67.05;95828.55;575528;244;73230;-73
2022/03/31 01:51:04;;;;;;;;;;;;;;;22.94;68.09;95833.91;575564;246;68529;-72
2022/03/31 01:53:38;;;;;;;;;;;;;;;22.94;68.14;95833.91;575506;244;65176;-73
2022/03/31 01:56:09;;;;;;;;;;;;;;;22.93;67.36;95826.98;575541;246;69117;-71
2022/03/31 01:58:36;;;;;;;;;;;;;;;22.94;67.24;95839.27;575541;246;66661;-71
2022/03/31 02:01:04;;;;;;;;;;;;;;;22.93;67.56;95843.06;575540;246;63054;-71
2022/03/31 02:03:33;;;;;;;;;;;;;;;22.93;67.92;95835.02;575567;246;68742;-71
2022/03/31 02:06:01;;;;;;;;;;;;;;;22.91;66.54;95837.22;575511;246;66451;-71
2022/03/31 02:08:29;;;;;;;;;;;;;;;22.90;67.41;95836.43;575542;246;62858;-71
2022/03/31 02:10:56;;;;;;;;;;;;;;;22.92;67.59;95838.81;575550;246;68792;-71
2022/03/31 02:13:24;;;;;;;;;;;;;;;22.91;67.50;95834.53;575567;246;68012;-71
2022/03/31 02:15:51;;;;;;;;;;;;;;;22.91;67.87;95824.60;575544;246;65148;-71
2022/03/31 02:18:19;;;;;;;;;;;;;;;22.90;67.45;95819.58;575594;246;68456;-71
2022/03/31 02:20:46;;;;;;;;;;;;;;;22.90;67.71;95816.89;582634;242;68575;-71
2022/03/31 02:23:14;;;;;;;;;;;;;;;22.90;68.25;95824.93;586160;242;65146;-71
2022/03/31 02:25:43;;;;;;;;;;;;;;;22.89;67.53;95815.30;586154;242;68594;-71
2022/03/31 02:28:12;;;;;;;;;;;;;;;22.89;67.67;95818.79;586135;242;65693;-71
2022/03/31 02:30:41;;;;;;;;;;;;;;;22.89;67.69;95812.62;586199;242;65447;-71
2022/03/31 02:33:08;;;;;;;;;;;;;;;22.87;68.28;95812.16;586129;242;68390;-71
2022/03/31 02:35:36;;;;;;;;;;;;;;;22.89;67.26;95836.73;586120;242;68603;-71
2022/03/31 02:38:03;;;;;;;;;;;;;;;22.89;67.92;95842.09;586143;242;65440;-71
2022/03/31 02:40:31;;;;;;;;;;;;;;;22.88;68.19;95837.84;586114;242;68450;-71
2022/03/31 02:42:59;;;;;;;;;;;;;;;22.88;67.91;95833.27;586185;242;68611;-71
2022/03/31 02:45:26;;;;;;;;;;;;;;;22.87;67.27;95831.70;586093;242;63104;-71
2022/03/31 02:47:54;;;;;;;;;;;;;;;22.88;67.43;95832.48;586096;242;66730;-71
2022/03/31 02:50:21;;;;;;;;;;;;;;;22.87;67.58;95828.23;586120;242;66530;-71
2022/03/31 02:55:32;;;;;;;;;;;;;;;22.86;67.98;95813.25;576873;242;68446;-71
2022/03/31 02:58:03;;;;;;;;;;;;;;;22.85;67.98;95814.36;585929;242;68563;-73
2022/03/31 03:00:32;;;;;;;;;;;;;;;22.85;67.79;95795.61;586134;242;64065;-73
2022/03/31 03:03:03;;;;;;;;;;;;;;;22.85;68.16;95796.39;586143;242;68897;-73
2022/03/31 03:05:34;;;;;;;;;;;;;;;22.84;68.04;95792.14;586130;242;66751;-73
2022/03/31 03:08:02;;;;;;;;;;;;;;;22.85;68.66;95798.28;586108;242;65418;-72
2022/03/31 03:10:30;;;;;;;;;;;;;;;22.85;68.43;95814.36;586118;242;66461;-73
2022/03/31 03:12:57;;;;;;;;;;;;;;;22.83;68.06;95823.50;586116;242;66595;-72
2022/03/31 03:15:25;;;;;;;;;;;;;;;22.85;68.35;95822.39;586114;242;65177;-72
2022/03/31 03:17:53;;;;;;;;;;;;;;;22.82;68.32;95813.88;586134;242;68819;-72
2022/03/31 03:20:24;;;;;;;;;;;;;;;22.82;68.37;95803.16;586086;242;66595;-72
2022/03/31 03:22:51;;;;;;;;;;;;;;;22.82;68.43;95787.09;586090;242;63006;-72
2022/03/31 03:25:20;;;;;;;;;;;;;;;22.81;68.36;95782.84;586181;242;68747;-73
2022/03/31 03:27:48;;;;;;;;;;;;;;;22.81;68.11;95777.48;586181;242;68012;-73
2022/03/31 03:30:22;;;;;;;;;;;;;;;22.81;68.47;95790.09;586180;242;65188;-72
2022/03/31 03:32:46;;;;;;;;;;;;;;;22.81;68.55;95795.45;585888;242;66195;-72
2022/03/31 03:35:15;;;;;;;;;;;;;;;22.81;68.29;95804.27;586158;242;68635;-73
2022/03/31 03:37:44;;;;;;;;;;;;;;;22.81;68.68;95798.12;586179;242;65409;-72
2022/03/31 03:40:12;;;;;;;;;;;;;;;22.81;68.79;95790.88;586177;242;66193;-72
2022/03/31 03:42:40;;;;;;;;;;;;;;;22.81;68.64;95792.77;586167;242;68480;-72
2022/03/31 03:45:09;;;;;;;;;;;;;;;22.79;68.39;95785.03;586184;242;65371;-73
2022/03/31 03:47:36;;;;;;;;;;;;;;;22.80;68.28;95783.14;586172;242;66194;-73
2022/03/31 03:50:04;;;;;;;;;;;;;;;22.80;68.34;95780.46;586175;242;66203;-72
2022/03/31 03:52:32;;;;;;;;;;;;;;;22.80;68.83;95759.03;586173;242;63041;-73
2022/03/31 03:54:59;;;;;;;;;;;;;;;22.78;68.11;95764.72;586168;242;68229;-73
2022/03/31 03:57:27;;;;;;;;;;;;;;;22.79;69.46;95776.22;586156;242;68411;-72
2022/03/31 03:59:54;;;;;;;;;;;;;;;22.78;67.78;95780.80;586151;242;65449;-73
2022/03/31 04:02:22;;;;;;;;;;;;;;;22.78;68.67;95767.40;586133;242;68683;-72
2022/03/31 04:04:49;;;;;;;;;;;;;;;22.78;68.55;95777.30;586118;242;68287;-73
2022/03/31 04:07:17;;;;;;;;;;;;;;;22.79;68.09;95777.00;586175;242;65549;-73
2022/03/31 04:09:44;;;;;;;;;;;;;;;22.77;68.40;95776.52;586175;242;68460;-73
2022/03/31 04:12:12;;;;;;;;;;;;;;;22.75;67.88;95776.06;586196;242;68349;-73
2022/03/31 04:14:40;;;;;;;;;;;;;;;22.76;68.25;95763.45;586176;242;63046;-73
2022/03/31 04:17:07;;;;;;;;;;;;;;;22.76;68.74;95768.81;586170;242;66194;-72
2022/03/31 04:19:35;;;;;;;;;;;;;;;22.76;68.33;95771.48;584248;242;68285;-72
2022/03/31 04:22:02;;;;;;;;;;;;;;;22.76;69.05;95768.81;575574;246;66338;-72
2022/03/31 04:24:29;;;;;;;;;;;;;;;22.75;68.36;95767.21;575590;246;68387;-73
2022/03/31 04:26:57;;;;;;;;;;;;;;;22.75;68.35;95761.86;575615;246;68328;-72
2022/03/31 04:29:26;;;;;;;;;;;;;;;22.74;68.53;95755.72;575561;246;65203;-73
2022/03/31 04:31:53;;;;;;;;;;;;;;;22.75;68.46;95776.06;575544;246;68431;-72
2022/03/31 04:34:21;;;;;;;;;;;;;;;22.73;68.59;95751.47;575525;246;68370;-73
2022/03/31 04:36:49;;;;;;;;;;;;;;;22.74;69.70;95741.55;575569;246;63210;-73
2022/03/31 04:39:16;;;;;;;;;;;;;;;22.73;68.78;95748.80;575604;246;66226;-72
2022/03/31 04:41:44;;;;;;;;;;;;;;;22.73;68.54;95740.77;575562;246;68059;-73
2022/03/31 04:44:12;;;;;;;;;;;;;;;22.73;68.70;95732.73;575536;246;65268;-73
2022/03/31 04:46:39;;;;;;;;;;;;;;;22.73;68.69;95742.66;575580;246;68393;-72
2022/03/31 04:49:07;;;;;;;;;;;;;;;22.72;68.82;95730.34;575535;246;68661;-72
2022/03/31 04:51:35;;;;;;;;;;;;;;;22.70;69.15;95736.03;575591;246;63068;-69
2022/03/31 04:54:03;;;;;;;;;;;;;;;22.71;68.76;95734.92;575577;246;66256;-69
2022/03/31 04:56:31;;;;;;;;;;;;;;;22.71;68.80;95740.28;575557;246;68383;-69
2022/03/31 04:58:58;;;;;;;;;;;;;;;22.72;69.17;95743.73;575534;246;65416;-69
2022/03/31 05:01:26;;;;;;;;;;;;;;;22.70;69.02;95744.06;575552;246;68405;-69
2022/03/31 05:03:57;;;;;;;;;;;;;;;22.70;69.00;95749.42;575580;246;68898;-69
2022/03/31 05:06:24;;;;;;;;;;;;;;;22.70;69.19;95746.74;575583;246;63110;-69
2022/03/31 05:08:52;;;;;;;;;;;;;;;22.70;68.88;95744.06;575562;246;68159;-69
2022/03/31 05:11:19;;;;;;;;;;;;;;;22.70;70.09;95737.90;575515;246;68543;-69
2022/03/31 05:13:47;;;;;;;;;;;;;;;22.69;69.42;95737.11;575520;246;65368;-69
2022/03/31 05:16:14;;;;;;;;;;;;;;;22.69;69.52;95742.47;575614;244;68753;-69
2022/03/31 05:18:43;;;;;;;;;;;;;;;22.67;69.18;95739.34;575596;246;68453;-69
2022/03/31 05:21:10;;;;;;;;;;;;;;;22.68;69.38;95740.13;575529;245;63119;-69
2022/03/31 05:23:38;;;;;;;;;;;;;;;22.67;68.71;95752.73;575565;246;66195;-69
2022/03/31 05:26:05;;;;;;;;;;;;;;;22.68;68.94;95754.30;575524;246;66267;-69
2022/03/31 05:28:33;;;;;;;;;;;;;;;22.68;69.16;95756.19;575540;246;63105;-69
2022/03/31 05:31:01;;;;;;;;;;;;;;;22.67;69.08;95763.44;575651;246;66149;-69
2022/03/31 05:33:28;;;;;;;;;;;;;;;22.67;69.37;95771.47;575512;246;66258;-69
2022/03/31 05:35:58;;;;;;;;;;;;;;;22.66;68.96;95775.23;575569;246;63191;-69
2022/03/31 05:38:25;;;;;;;;;;;;;;;22.66;69.36;95774.45;575358;246;68241;-72
2022/03/31 05:40:52;;;;;;;;;;;;;;;22.66;69.39;95775.23;575546;246;68373;-72
2022/03/31 05:43:21;;;;;;;;;;;;;;;22.65;69.08;95773.67;575614;246;66066;-72
2022/03/31 05:45:50;;;;;;;;;;;;;;;22.65;68.94;95772.88;575569;246;68456;-72
2022/03/31 05:48:17;;;;;;;;;;;;;;;22.65;69.07;95762.17;575430;246;68372;-72
2022/03/31 05:50:45;;;;;;;;;;;;;;;22.65;68.88;95773.67;575560;246;65423;-73
2022/03/31 05:53:13;;;;;;;;;;;;;;;22.65;70.16;95783.59;575474;246;68421;-72
2022/03/31 05:55:41;;;;;;;;;;;;;;;22.64;70.11;95766.71;575599;246;67999;-74
2022/03/31 05:58:09;;;;;;;;;;;;;;;22.64;69.91;95766.71;574951;246;65410;-71
2022/03/31 06:00:37;;;;;;;;;;;;;;;22.64;69.13;95761.36;575308;246;66326;-71
2022/03/31 06:03:04;;;;;;;;;;;;;;;22.62;69.35;95763.58;585674;242;66497;-69
2022/03/31 06:05:32;;;;;;;;;;;;;;;22.61;68.95;95756.63;586281;242;65393;-70
2022/03/31 06:07:59;;;;;;;;;;;;;;;22.61;68.78;95743.24;586394;242;66174;-70
2022/03/31 06:10:27;;;;;;;;;;;;;;;22.60;68.43;95739.78;586405;242;68287;-70
2022/03/31 06:12:54;;;;;;;;;;;;;;;22.61;68.57;95745.92;586367;242;65456;-68
2022/03/31 06:15:22;;;;;;;;;;;;;;;22.62;67.39;95742.16;586341;242;68649;-70
2022/03/31 06:17:49;;;;;;;;;;;;;;;22.61;67.75;95751.27;586400;242;66184;-70
2022/03/31 06:20:17;;;;;;;;;;;;;;;22.61;66.68;95757.41;587264;241;63071;-71
2022/03/31 06:22:44;;;;;;;;;;;;;;;22.61;66.13;95751.27;588402;240;67865;-70
2022/03/31 06:25:14;;;;;;;;;;;;;;;22.61;65.47;95752.06;588351;241;68136;-73
2022/03/31 06:27:41;;;;;;;;;;;;;;;22.61;65.60;95784.19;588327;241;65539;-63
2022/03/31 06:30:10;;;;;;;;;;;;;;;22.61;65.34;95796.80;588384;241;68589;-69
2022/03/31 06:32:37;;;;;;;;;;;;;;;22.61;64.96;95805.61;588269;241;68197;-70
2022/03/31 06:35:05;;;;;;;;;;;;;;;22.60;64.70;95809.40;588418;241;65297;-69
2022/03/31 06:37:35;;;;;;;;;;;;;;;22.59;64.23;95805.16;588371;241;69031;-70
2022/03/31 06:40:02;;;;;;;;;;;;;;;22.60;64.14;95804.05;588128;241;68182;-71
2022/03/31 06:42:29;;;;;;;;;;;;;;;22.59;63.03;95794.44;588295;241;65696;-70
2022/03/31 06:44:57;;;;;;;;;;;;;;;22.59;63.41;95791.77;588335;241;68643;-70
2022/03/31 06:47:24;;;;;;;;;;;;;;;22.58;63.47;95790.17;588306;241;68565;-69
2022/03/31 06:49:52;;;;;;;;;;;;;;;22.59;63.46;95790.98;588314;241;65413;-70
2022/03/31 06:52:19;;;;;;;;;;;;;;;22.59;62.75;95780.27;588304;241;68538;-68
2022/03/31 06:54:47;;;;;;;;;;;;;;;22.60;63.31;95789.88;588227;241;68580;-67
2022/03/31 06:57:14;;;;;;;;;;;;;;;22.60;63.50;95787.20;588237;241;65345;-68
2022/03/31 06:59:42;;;;;;;;;;;;;;;22.59;63.69;95788.30;583173;241;68545;-67
2022/03/31 07:02:09;;;;;;;;;;;;;;;22.61;63.54;95783.41;579140;242;68535;-67
2022/03/31 07:04:37;;;;;;;;;;;;;;;22.61;63.56;95780.73;579162;245;65332;-67
2022/03/31 07:07:04;;;;;;;;;;;;;;;22.61;63.75;95778.05;579204;245;67244;-67
2022/03/31 07:09:32;;;;;;;;;;;;;;;22.62;63.83;95774.30;579194;245;68147;-68
2022/03/31 07:11:59;;;;;;;;;;;;;;;22.61;64.21;95760.09;579183;245;65427;-68
2022/03/31 07:14:28;;;;;;;;;;;;;;;22.62;64.49;95776.97;579199;245;69609;-67
2022/03/31 07:16:56;;;;;;;;;;;;;;;22.63;64.79;95770.50;579047;245;69000;-67
2022/03/31 07:19:23;;;;;;;;;;;;;;;22.63;64.31;95767.83;578831;242;65308;-68
2022/03/31 07:21:51;;;;;;;;;;;;;;;22.63;63.98;95756.33;575437;246;68559;-68
2022/03/31 07:24:19;;;;;;;;;;;;;;;22.63;64.95;95757.11;575507;246;66487;-67
2022/03/31 07:26:47;;;;;;;;;;;;;;;22.64;64.57;95744.51;575551;246;63014;-68
2022/03/31 07:29:14;;;;;;;;;;;;;;;22.65;64.23;95772.88;575459;246;68562;-68
2022/03/31 07:31:44;;;;;;;;;;;;;;;22.65;64.73;95741.53;575417;245;68521;-69
2022/03/31 07:34:11;;;;;;;;;;;;;;;22.66;64.69;95767.20;575503;246;63296;-69
2022/03/31 07:36:39;;;;;;;;;;;;;;;22.66;65.15;95747.67;575461;246;66167;-69
2022/03/31 07:39:08;;;;;;;;;;;;;;;22.67;65.19;95765.30;575555;246;68620;-68
2022/03/31 07:41:35;;;;;;;;;;;;;;;22.67;64.88;95747.37;575478;246;63285;-68
2022/03/31 07:44:03;;;;;;;;;;;;;;;22.68;64.50;95762.33;575509;246;66885;-68
2022/03/31 07:46:32;;;;;;;;;;;;;;;22.69;64.50;95768.47;575545;246;68896;-69
2022/03/31 07:49:00;;;;;;;;;;;;;;;22.69;63.94;95774.61;575551;246;63371;-69
2022/03/31 07:51:29;;;;;;;;;;;;;;;22.69;64.41;95790.67;575489;246;66575;-70
2022/03/31 07:53:56;;;;;;;;;;;;;;;22.71;63.51;95803.77;575439;246;66105;-67
2022/03/31 07:56:24;;;;;;;;;;;;;;;22.71;64.01;95801.09;575383;246;65579;-68
2022/03/31 07:58:51;;;;;;;;;;;;;;;22.71;63.20;95811.80;575435;246;68858;-68
2022/03/31 08:01:19;;;;;;;;;;;;;;;22.72;63.13;95830.22;575541;246;68743;-67
2022/03/31 08:03:46;;;;;;;;;;;;;;;22.73;63.26;95817.64;575538;246;65290;-68
2022/03/31 08:06:14;;;;;;;;;;;;;;;22.73;63.26;95823.78;575493;246;68848;-67
2022/03/31 08:08:41;;;;;;;;;;;;;;;22.73;63.16;95831.81;575532;246;68613;-67
2022/03/31 08:11:09;;;;;;;;;;;;;;;22.70;59.88;95812.88;575551;246;65409;-67
2022/03/31 08:13:36;;;;;;;;;;;;;;;22.75;61.89;95826.14;575481;246;66554;-67
2022/03/31 08:16:04;;;;;;;;;;;;;;;22.76;61.77;95817.80;575492;246;68915;-66
2022/03/31 08:18:34;;;;;;;;;;;;;;;22.78;63.90;95822.83;575524;246;65378;-67
2022/03/31 08:21:02;;;;;;;;;;;;;;;22.78;64.25;95817.47;583571;242;68755;-66
2022/03/31 08:23:30;;;;;;;;;;;;;;;22.78;64.40;95809.44;586129;242;68353;-67
2022/03/31 08:25:58;;;;;;;;;;;;;;;22.79;64.96;95822.53;586063;242;63209;-67
2022/03/31 08:28:31;;;;;;;;;;;;;;;22.80;65.04;95832.14;586073;242;66745;-68
2022/03/31 08:30:57;;;;;;;;;;;;;;;22.81;65.05;95823.02;586060;242;69044;-67
2022/03/31 08:33:26;;;;;;;;;;;;;;;22.81;65.20;95831.05;585996;242;63261;-68
2022/03/31 08:35:53;;;;;;;;;;;;;;;22.82;64.53;95851.38;586078;242;66693;-66
2022/03/31 08:38:22;;;;;;;;;;;;;;;22.83;64.97;95828.86;586093;242;66635;-68
2022/03/31 08:40:50;;;;;;;;;;;;;;;22.86;65.27;95823.95;586061;242;65457;-68
2022/03/31 08:43:19;;;;;;;;;;;;;;;22.85;65.04;95811.68;586117;242;68894;-70
2022/03/31 08:45:51;;;;;;;;;;;;;;;22.91;61.41;95797.03;586134;242;68747;-69
2022/03/31 08:48:18;;;;;;;;;;;;;;;22.96;62.60;95796.91;586036;242;63037;-69
2022/03/31 08:50:45;;;;;;;;;;;;;;;22.95;64.02;95787.28;586107;242;66106;-67
2022/03/31 08:53:13;;;;;;;;;;;;;;;22.94;63.91;95785.69;586090;242;66469;-71
2022/03/31 08:55:40;;;;;;;;;;;;;;;22.94;64.54;95774.97;586015;242;63033;-70
2022/03/31 08:58:09;;;;;;;;;;;;;;;22.93;64.55;95774.19;585601;242;69006;-72
2022/03/31 09:00:36;;;;;;;;;;;;;;;22.94;64.91;95774.97;585769;242;68390;-66
2022/03/31 09:03:05;;;;;;;;;;;;;;;22.94;63.71;95775.75;586020;242;65306;-65
2022/03/31 09:05:37;;;;;;;;;;;;;;;22.95;63.90;95798.00;586041;242;66546;-65
2022/03/31 09:08:09;;;;;;;;;;;;;;;22.96;63.77;95788.88;585848;242;66773;-64
2022/03/31 09:10:37;;;;;;;;;;;;;;;22.96;63.86;95775.48;586010;242;63175;-65
2022/03/31 09:13:07;;;;;;;;;;;;;;;22.96;63.75;95778.16;586134;242;68842;-66
2022/03/31 09:15:37;;;;;;;;;;;;;;;22.96;64.08;95762.09;585791;242;48828;-68
2022/03/31 09:18:04;;;;;;;;;;;;;;;22.96;63.15;95752.16;586057;242;63189;-69
2022/03/31 09:20:35;;;;;;;;;;;;;;;22.97;63.41;95763.66;579936;242;68632;-69
2022/03/31 09:23:03;;;;;;;;;;;;;;;22.98;64.06;95767.92;575436;246;68795;-68
2022/03/31 09:25:32;;;;;;;;;;;;;;;22.98;63.65;95747.28;575446;246;65270;-68
2022/03/31 09:28:01;;;;;;;;;;;;;;;22.98;63.30;95752.63;575470;246;68841;-69
2022/03/31 09:30:31;;;;;;;;;;;;;;;22.99;63.83;95767.59;575359;246;66755;-69
2022/03/31 09:33:02;;;;;;;;;;;;;;;23.00;63.89;95765.73;575420;246;63076;-68
2022/03/31 09:35:27;;;;;;;;;;;;;;;23.00;63.59;95753.12;575380;245;68764;-69
2022/03/31 09:37:55;;;;;;;;;;;;;;;23.00;63.30;95738.94;575400;246;68432;-68
2022/03/31 09:40:23;;;;;;;;;;;;;;;23.00;63.82;95720.97;575464;246;63213;-70
2022/03/31 09:42:57;;;;;;;;;;;;;;;23.01;63.79;95749.33;575474;246;66556;-69
2022/03/31 09:45:24;;;;;;;;;;;;;;;23.02;62.98;95739.39;575370;246;67166;-68
2022/03/31 09:47:52;;;;;;;;;;;;;;;23.03;63.30;95751.70;575487;246;63322;-69
2022/03/31 09:50:20;;;;;;;;;;;;;;;23.03;63.84;95747.13;575431;246;68901;-69
2022/03/31 09:52:48;;;;;;;;;;;;;;;23.03;62.58;95741.77;575329;246;69761;-68
2022/03/31 09:55:18;;;;;;;;;;;;;;;23.03;63.35;95735.63;575362;246;65366;-68
2022/03/31 09:57:47;;;;;;;;;;;;;;;23.04;63.75;95732.62;575439;246;68846;-69
2022/03/31 10:00:16;;;;;;;;;;;;;;;23.04;63.81;95721.90;575270;242;68898;-64
2022/03/31 10:02:44;;;;;;;;;;;;;;;23.04;63.20;95705.82;575539;246;65381;-67
2022/03/31 10:05:12;;;;;;;;;;;;;;;23.06;63.70;95710.09;575449;246;68412;-70
2022/03/31 10:07:40;;;;;;;;;;;;;;;23.05;63.45;95703.92;575410;246;68583;-71
2022/03/31 10:10:08;;;;;;;;;;;;;;;23.05;63.20;95703.92;575433;246;65285;-71
2022/03/31 10:12:40;;;;;;;;;;;;;;;23.06;62.29;95702.84;575412;246;66858;-71
2022/03/31 10:15:12;;;;;;;;;;;;;;;23.06;61.68;95697.48;575460;244;68576;-70
2022/03/31 10:17:41;;;;;;;;;;;;;;;23.07;62.35;95688.33;575410;245;63171;-72
2022/03/31 10:20:09;;;;;;;;;;;;;;;23.06;61.67;95675.27;579763;240;68762;-71
2022/03/31 10:25:18;;;;;;;;;;;;;;;23.05;60.94;95661.05;580345;242;66305;-70
2022/03/31 10:27:47;;;;;;;;;;;;;;;23.06;61.92;95673.36;586064;242;68409;-71
2022/03/31 10:30:19;;;;;;;;;;;;;;;23.08;61.61;95662.31;586125;242;68510;-70
2022/03/31 10:32:54;;;;;;;;;;;;;;;23.08;61.67;95638.20;586056;242;65475;-71
2022/03/31 10:35:23;;;;;;;;;;;;;;;23.08;61.86;95655.09;586040;242;66194;-72
2022/03/31 10:37:51;;;;;;;;;;;;;;;23.08;62.39;95665.80;586005;242;68526;-72
2022/03/31 10:40:20;;;;;;;;;;;;;;;23.08;61.52;95681.07;586094;242;65513;-71
2022/03/31 10:42:49;;;;;;;;;;;;;;;23.09;61.87;95685.34;585020;242;68488;-72
2022/03/31 10:45:16;;;;;;;;;;;;;;;23.09;61.43;95688.80;585911;242;68383;-70
2022/03/31 10:47:44;;;;;;;;;;;;;;;23.10;61.42;95674.29;586115;242;62953;-71
2022/03/31 10:50:13;;;;;;;;;;;;;;;23.09;61.41;95680.77;586030;242;68240;-70
2022/03/31 10:52:41;;;;;;;;;;;;;;;23.10;61.39;95668.94;585598;242;68867;-69
2022/03/31 10:55:10;;;;;;;;;;;;;;;23.11;61.13;95689.28;585973;242;65397;-70
2022/03/31 10:57:38;;;;;;;;;;;;;;;23.11;59.12;95724.13;586059;242;68755;-70
2022/03/31 11:00:08;;;;;;;;;;;;;;;23.15;61.20;95710.87;586057;242;66911;-68
2022/03/31 11:02:43;;;;;;;;;;;;;;;23.15;61.21;95702.83;586018;242;63449;-70
2022/03/31 11:05:11;;;;;;;;;;;;;;;23.15;61.54;95717.02;586051;242;68887;-68
2022/03/31 11:07:39;;;;;;;;;;;;;;;23.14;60.84;95685.97;586060;242;66618;-69
2022/03/31 11:10:08;;;;;;;;;;;;;;;23.15;60.32;95679.49;585984;242;65347;-68
2022/03/31 11:12:36;;;;;;;;;;;;;;;23.15;60.50;95667.99;586108;242;68905;-69
2022/03/31 11:15:08;;;;;;;;;;;;;;;23.16;59.95;95665.01;586063;242;66547;-69
2022/03/31 11:17:37;;;;;;;;;;;;;;;23.16;60.55;95665.01;586036;242;65037;-70
2022/03/31 11:20:16;;;;;;;;;;;;;;;23.17;61.57;95657.75;585980;242;68344;-70
2022/03/31 11:22:52;;;;;;;;;;;;;;;23.18;60.67;95661.99;586054;242;68856;-70
2022/03/31 11:25:20;;;;;;;;;;;;;;;23.18;60.93;95656.64;585779;242;63038;-68
2022/03/31 11:27:48;;;;;;;;;;;;;;;23.18;61.53;95659.31;586143;242;68907;-69
2022/03/31 11:30:18;;;;;;;;;;;;;;;23.18;60.88;95653.95;586072;242;68716;-69
2022/03/31 11:32:48;;;;;;;;;;;;;;;23.22;61.88;95666.41;585835;242;64930;-68
2022/03/31 11:35:21;;;;;;;;;;;;;;;23.25;59.24;95667.67;586085;242;66671;-67
2022/03/31 11:37:49;;;;;;;;;;;;;;;23.26;61.96;95650.47;585871;242;66675;-68
2022/03/31 11:40:24;;;;;;;;;;;;;;;23.25;60.35;95646.23;585861;242;63257;-69
2022/03/31 11:42:54;;;;;;;;;;;;;;;23.25;61.85;95648.91;585779;242;68883;-69
2022/03/31 11:45:26;;;;;;;;;;;;;;;23.24;62.20;95658.84;585260;242;68758;-69
2022/03/31 11:48:08;;;;;;;;;;;;;;;23.24;61.61;95664.20;585164;242;65443;-70
2022/03/31 11:50:37;;;;;;;;;;;;;;;23.22;60.73;95666.41;585951;242;66601;-70
2022/03/31 11:53:05;;;;;;;;;;;;;;;23.23;60.40;95664.52;585978;242;68603;-70
2022/03/31 11:55:33;;;;;;;;;;;;;;;23.22;61.57;95655.69;585670;242;62740;-70
2022/03/31 11:58:01;;;;;;;;;;;;;;;23.25;58.31;95641.65;586046;242;66386;-70
2022/03/31 12:00:30;;;;;;;;;;;;;;;23.26;60.26;95648.58;586038;242;68612;-70
2022/03/31 12:03:00;;;;;;;;;;;;;;;23.29;60.95;95651.73;586127;242;63060;-71
2022/03/31 12:05:27;;;;;;;;;;;;;;;23.30;61.28;95647.94;585900;242;68712;-70
2022/03/31 12:07:55;;;;;;;;;;;;;;;23.31;59.65;95652.20;586111;242;68334;-70
2022/03/31 12:10:23;;;;;;;;;;;;;;;23.31;60.90;95657.57;586085;242;63919;-70
2022/03/31 12:12:55;;;;;;;;;;;;;;;23.33;59.73;95641.96;586038;242;69831;-69
2022/03/31 12:15:27;;;;;;;;;;;;;;;23.33;62.24;95636.60;586023;242;68920;-69
2022/03/31 12:17:59;;;;;;;;;;;;;;;23.35;62.19;95650.45;586086;242;65366;-69
2022/03/31 12:20:27;;;;;;;;;;;;;;;23.34;60.23;95656.93;586042;242;66647;-70
2022/03/31 12:22:55;;;;;;;;;;;;;;;23.34;62.51;95649.67;586105;242;68451;-70
2022/03/31 12:25:36;;;;;;;;;;;;;;;23.35;62.34;95642.41;586102;242;65451;-69
2022/03/31 12:28:04;;;;;;;;;;;;;;;23.36;60.80;95619.88;586043;242;66356;-70
2022/03/31 12:30:39;;;;;;;;;;;;;;;23.34;61.68;95614.82;586070;242;68586;-70
2022/03/31 12:33:08;;;;;;;;;;;;;;;23.35;62.66;95602.98;585999;242;65355;-69
2022/03/31 12:35:36;;;;;;;;;;;;;;;23.36;63.83;95628.70;585706;242;69243;-70
2022/03/31 12:38:07;;;;;;;;;;;;;;;23.36;63.05;95617.20;586090;242;68777;-70
2022/03/31 12:40:32;;;;;;;;;;;;;;;23.37;63.51;95597.31;585942;242;65480;-70
2022/03/31 12:43:00;;;;;;;;;;;;;;;23.36;62.89;95591.17;586035;242;69119;-70
2022/03/31 12:45:34;;;;;;;;;;;;;;;23.36;62.45;95575.09;586033;242;66470;-71
2022/03/31 12:47:58;;;;;;;;;;;;;;;23.36;63.72;95566.27;585868;242;63110;-71
2022/03/31 12:50:27;;;;;;;;;;;;;;;23.37;61.40;95568.61;586038;242;66499;-70
2022/03/31 12:53:01;;;;;;;;;;;;;;;23.39;60.89;95566.40;586083;242;68572;-70
2022/03/31 12:55:35;;;;;;;;;;;;;;;23.39;63.19;95592.42;586069;242;65750;-69
2022/03/31 12:58:05;;;;;;;;;;;;;;;23.38;62.69;95586.28;585911;242;68934;-69
2022/03/31 13:00:33;;;;;;;;;;;;;;;23.40;63.62;95575.22;586038;242;66742;-69
2022/03/31 13:03:02;;;;;;;;;;;;;;;23.39;64.03;95576.34;586094;242;65560;-69